Little Grand Rapids, Canada
Current Conditions -  °F | °C
As of 7:00 PM on Friday 21 Nov 2014 (Local Time) from CYRL Reporting Station
Blowing Snow Blowing Snow  
Wind Chill: 16°   Ceiling: 16000
Heat Index: 25°   Visibility: 15mi
Dew Point: 19°   Wind: 8mph
Humidity: 80%   Direction: 200°SSW
Pressure: 29.44"   Gusts: NA
Location:  52.05°N, 95.48°W
Report Text: CYRL 220100Z 20007KT 15SM DRSN SCT011 BKN160 M04/M07 A2944 RMK SC4AC2 SLP995
Loading
Personal Weather Stations






























Interactive Weather Map New forecast layout! Learn more

10-Day Weather Forecast

Advertisements
Track Severe Weather on mobile